sensor_id;sensor_type;location;lat;lon;timestamp;P1;durP1;ratioP1;P2;durP2;ratioP2
74624;SDS011;63131;52.298;8.056;2023-10-08T00:42:51;4.60;;;1.33;;
74624;SDS011;63131;52.298;8.056;2023-10-08T00:45:21;4.78;;;1.45;;
74624;SDS011;63131;52.298;8.056;2023-10-08T00:47:47;4.27;;;1.50;;
74624;SDS011;63131;52.298;8.056;2023-10-08T00:53:00;3.65;;;1.27;;
74624;SDS011;63131;52.298;8.056;2023-10-08T00:55:35;3.78;;;1.05;;
74624;SDS011;63131;52.298;8.056;2023-10-08T00:58:06;3.58;;;1.10;;
74624;SDS011;63131;52.298;8.056;2023-10-08T01:00:42;3.10;;;1.00;;
74624;SDS011;63131;52.298;8.056;2023-10-08T01:06:34;1.70;;;0.80;;
74624;SDS011;63131;52.298;8.056;2023-10-08T01:09:12;2.03;;;0.93;;
74624;SDS011;63131;52.298;8.056;2023-10-08T01:18:30;1.25;;;0.60;;
74624;SDS011;63131;52.298;8.056;2023-10-08T01:21:06;1.08;;;0.38;;
74624;SDS011;63131;52.298;8.056;2023-10-08T01:23:50;1.08;;;0.50;;
74624;SDS011;63131;52.298;8.056;2023-10-08T01:29:30;0.75;;;0.32;;
74624;SDS011;63131;52.298;8.056;2023-10-08T01:32:02;0.20;;;0.20;;
74624;SDS011;63131;52.298;8.056;2023-10-08T01:38:24;0.17;;;0.17;;
74624;SDS011;63131;52.298;8.056;2023-10-08T01:41:13;0.35;;;0.10;;
74624;SDS011;63131;52.298;8.056;2023-10-08T01:43:45;0.80;;;0.30;;
74624;SDS011;63131;52.298;8.056;2023-10-08T01:46:14;0.90;;;0.17;;
74624;SDS011;63131;52.298;8.056;2023-10-08T01:48:41;1.05;;;0.30;;
74624;SDS011;63131;52.298;8.056;2023-10-08T01:51:10;0.30;;;0.30;;
74624;SDS011;63131;52.298;8.056;2023-10-08T01:53:39;0.90;;;0.38;;
74624;SDS011;63131;52.298;8.056;2023-10-08T01:56:05;0.20;;;0.20;;
74624;SDS011;63131;52.298;8.056;2023-10-08T02:00:56;0.97;;;0.40;;
74624;SDS011;63131;52.298;8.056;2023-10-08T02:03:25;0.40;;;0.30;;
74624;SDS011;63131;52.298;8.056;2023-10-08T02:05:50;1.35;;;0.30;;
74624;SDS011;63131;52.298;8.056;2023-10-08T02:08:18;0.73;;;0.30;;
74624;SDS011;63131;52.298;8.056;2023-10-08T02:10:44;0.30;;;0.30;;
74624;SDS011;63131;52.298;8.056;2023-10-08T02:13:12;1.33;;;0.50;;
74624;SDS011;63131;52.298;8.056;2023-10-08T02:15:49;0.17;;;0.17;;
74624;SDS011;63131;52.298;8.056;2023-10-08T02:18:16;0.30;;;0.20;;
74624;SDS011;63131;52.298;8.056;2023-10-08T02:20:42;0.40;;;0.32;;
74624;SDS011;63131;52.298;8.056;2023-10-08T02:23:10;0.80;;;0.32;;
74624;SDS011;63131;52.298;8.056;2023-10-08T02:25:38;1.10;;;0.40;;
74624;SDS011;63131;52.298;8.056;2023-10-08T02:28:05;1.17;;;0.50;;
74624;SDS011;63131;52.298;8.056;2023-10-08T02:30:33;1.65;;;0.45;;
74624;SDS011;63131;52.298;8.056;2023-10-08T02:35:24;1.92;;;0.68;;
74624;SDS011;63131;52.298;8.056;2023-10-08T02:37:49;1.25;;;0.52;;
74624;SDS011;63131;52.298;8.056;2023-10-08T02:40:19;0.52;;;0.32;;
74624;SDS011;63131;52.298;8.056;2023-10-08T02:42:56;3.17;;;0.50;;
74624;SDS011;63131;52.298;8.056;2023-10-08T02:45:26;1.55;;;0.70;;
74624;SDS011;63131;52.298;8.056;2023-10-08T02:47:52;2.05;;;0.70;;
74624;SDS011;63131;52.298;8.056;2023-10-08T02:52:43;1.40;;;0.65;;
74624;SDS011;63131;52.298;8.056;2023-10-08T02:55:10;1.92;;;0.70;;
74624;SDS011;63131;52.298;8.056;2023-10-08T02:57:43;1.10;;;0.47;;
74624;SDS011;63131;52.298;8.056;2023-10-08T03:02:37;1.55;;;0.57;;
74624;SDS011;63131;52.298;8.056;2023-10-08T03:05:04;1.23;;;0.40;;
74624;SDS011;63131;52.298;8.056;2023-10-08T03:07:33;1.52;;;0.68;;
74624;SDS011;63131;52.298;8.056;2023-10-08T03:10:00;2.38;;;0.90;;
74624;SDS011;63131;52.298;8.056;2023-10-08T03:12:29;2.28;;;0.60;;
74624;SDS011;63131;52.298;8.056;2023-10-08T03:14:57;1.08;;;0.60;;
74624;SDS011;63131;52.298;8.056;2023-10-08T03:17:41;2.33;;;0.90;;
74624;SDS011;63131;52.298;8.056;2023-10-08T03:20:19;2.33;;;0.95;;
74624;SDS011;63131;52.298;8.056;2023-10-08T03:23:03;3.60;;;1.00;;
74624;SDS011;63131;52.298;8.056;2023-10-08T03:25:47;3.72;;;1.10;;
74624;SDS011;63131;52.298;8.056;2023-10-08T03:30:38;4.22;;;1.02;;
74624;SDS011;63131;52.298;8.056;2023-10-08T03:33:14;4.43;;;1.23;;
74624;SDS011;63131;52.298;8.056;2023-10-08T03:35:51;3.13;;;1.10;;
74624;SDS011;63131;52.298;8.056;2023-10-08T03:38:25;3.13;;;1.13;;
74624;SDS011;63131;52.298;8.056;2023-10-08T03:40:54;4.70;;;1.30;;
74624;SDS011;63131;52.298;8.056;2023-10-08T03:43:26;4.43;;;1.30;;
74624;SDS011;63131;52.298;8.056;2023-10-08T03:46:09;4.18;;;1.23;;
74624;SDS011;63131;52.298;8.056;2023-10-08T03:48:40;5.60;;;1.48;;
74624;SDS011;63131;52.298;8.056;2023-10-08T03:51:09;5.03;;;1.50;;
74624;SDS011;63131;52.298;8.056;2023-10-08T03:53:38;5.50;;;1.45;;
74624;SDS011;63131;52.298;8.056;2023-10-08T03:56:26;4.82;;;1.60;;
74624;SDS011;63131;52.298;8.056;2023-10-08T03:58:55;4.28;;;1.60;;
74624;SDS011;63131;52.298;8.056;2023-10-08T04:03:46;4.72;;;1.65;;
74624;SDS011;63131;52.298;8.056;2023-10-08T04:06:17;5.82;;;1.63;;
74624;SDS011;63131;52.298;8.056;2023-10-08T04:08:48;5.93;;;2.08;;
74624;SDS011;63131;52.298;8.056;2023-10-08T04:11:32;5.82;;;1.70;;
74624;SDS011;63131;52.298;8.056;2023-10-08T04:14:04;6.93;;;2.20;;
74624;SDS011;63131;52.298;8.056;2023-10-08T04:16:29;6.13;;;2.25;;
74624;SDS011;63131;52.298;8.056;2023-10-08T04:21:21;5.32;;;1.60;;
74624;SDS011;63131;52.298;8.056;2023-10-08T04:23:47;6.97;;;2.15;;
74624;SDS011;63131;52.298;8.056;2023-10-08T04:26:18;7.07;;;1.98;;
74624;SDS011;63131;52.298;8.056;2023-10-08T04:28:49;6.50;;;1.83;;
74624;SDS011;63131;52.298;8.056;2023-10-08T04:31:15;6.93;;;1.90;;
74624;SDS011;63131;52.298;8.056;2023-10-08T04:36:06;7.20;;;2.35;;
74624;SDS011;63131;52.298;8.056;2023-10-08T04:38:32;7.28;;;2.35;;
74624;SDS011;63131;52.298;8.056;2023-10-08T04:41:04;7.47;;;2.85;;
74624;SDS011;63131;52.298;8.056;2023-10-08T04:43:34;7.13;;;2.90;;
